Time,TemperatureF,DewpointF,PressureIn,WindDirection,WindDirectionDegrees,WindSpeedMPH,WindSpeedGustMPH,Humidity,HourlyPrecipIn,Conditions,Clouds,dailyrainin,SoftwareType,DateUTC
2013-04-13 00:02:00,41.0,39.0,-100.00,NNE,30,13.0,16.0,92,-99.99,,,-99.99,,2013-04-13 04:02:00,
2013-04-13 00:12:00,41.0,39.0,-100.00,NNE,20,11.0,16.0,91,-99.99,,,-99.99,,2013-04-13 04:12:00,
2013-04-13 00:22:00,41.0,39.0,-100.00,NNE,20,11.0,16.0,91,-99.99,,,-99.99,,2013-04-13 04:22:00,
2013-04-13 00:32:00,41.0,39.0,-100.00,NNE,20,11.0,16.0,91,-99.99,,,-99.99,,2013-04-13 04:32:00,
2013-04-13 00:42:00,41.0,39.0,-100.00,NNE,20,11.0,16.0,91,-99.99,,,-99.99,,2013-04-13 04:42:00,
2013-04-13 00:53:00,41.0,39.0,-100.00,NNE,30,13.0,18.0,92,-99.99,,,-99.99,,2013-04-13 04:53:00,
2013-04-13 01:02:00,41.0,39.0,-100.00,NNE,30,13.0,18.0,92,-99.99,,,-99.99,,2013-04-13 05:02:00,
2013-04-13 01:11:00,41.0,39.0,-100.00,NNE,30,13.0,18.0,92,-99.99,,,-99.99,,2013-04-13 05:11:00,
2013-04-13 01:22:00,41.0,39.0,-100.00,NNE,20,13.0,18.0,91,-99.99,,,-99.99,,2013-04-13 05:22:00,
2013-04-13 01:31:00,41.0,39.0,-100.00,NNE,20,13.0,18.0,91,-99.99,,,-99.99,,2013-04-13 05:31:00,
2013-04-13 01:42:00,41.0,39.0,-100.00,NNE,20,13.0,18.0,91,-99.99,,,-99.99,,2013-04-13 05:42:00,
2013-04-13 01:52:00,41.0,38.0,-100.00,NNE,30,11.0,16.0,91,-99.99,,,-99.99,,2013-04-13 05:52:00,
2013-04-13 02:01:00,41.0,38.0,-100.00,NNE,30,11.0,16.0,91,-99.99,,,-99.99,,2013-04-13 06:01:00,
2013-04-13 02:11:00,41.0,38.0,-100.00,NNE,30,11.0,16.0,91,-99.99,,,-99.99,,2013-04-13 06:11:00,
2013-04-13 02:21:00,41.0,38.0,-100.00,NE,40,13.0,18.0,90,-99.99,,,-99.99,,2013-04-13 06:21:00,
2013-04-13 02:42:00,41.0,38.0,-100.00,NE,40,13.0,18.0,90,-99.99,,,-99.99,,2013-04-13 06:42:00,
2013-04-13 02:52:00,41.0,38.0,-100.00,North,350,9.0,13.0,88,-99.99,,,-99.99,,2013-04-13 06:52:00,
2013-04-13 03:02:00,41.0,38.0,-100.00,North,350,9.0,13.0,88,-99.99,,,-99.99,,2013-04-13 07:02:00,
2013-04-13 03:21:00,41.0,38.0,-100.00,North,360,9.0,11.0,88,-99.99,,,-99.99,,2013-04-13 07:21:00,
2013-04-13 03:32:00,41.0,38.0,-100.00,North,360,9.0,11.0,88,-99.99,,,-99.99,,2013-04-13 07:32:00,
2013-04-13 03:42:00,41.0,38.0,-100.00,North,360,9.0,11.0,88,-99.99,,,-99.99,,2013-04-13 07:42:00,
2013-04-13 03:52:00,41.0,38.0,-100.00,North,360,9.0,13.0,87,-99.99,,,-99.99,,2013-04-13 07:52:00,
2013-04-13 04:02:00,41.0,38.0,-100.00,North,360,9.0,13.0,87,-99.99,,,-99.99,,2013-04-13 08:02:00,
2013-04-13 04:22:00,41.0,37.0,-100.00,North,350,11.0,13.0,86,-99.99,,,-99.99,,2013-04-13 08:22:00,
2013-04-13 04:31:00,41.0,37.0,-100.00,North,350,11.0,13.0,86,-99.99,,,-99.99,,2013-04-13 08:31:00,
2013-04-13 04:42:00,41.0,37.0,-100.00,North,350,11.0,13.0,86,-99.99,,,-99.99,,2013-04-13 08:42:00,
2013-04-13 04:52:00,41.0,37.0,-100.00,North,350,11.0,13.0,86,-99.99,,,-99.99,,2013-04-13 08:52:00,
2013-04-13 05:02:00,41.0,37.0,-100.00,North,350,11.0,13.0,86,-99.99,,,-99.99,,2013-04-13 09:02:00,
2013-04-13 05:32:00,41.0,37.0,-100.00,North,350,9.0,11.0,85,-99.99,,,-99.99,,2013-04-13 09:32:00,
2013-04-13 05:42:00,41.0,37.0,-100.00,North,350,9.0,11.0,85,-99.99,,,-99.99,,2013-04-13 09:42:00,
2013-04-13 05:52:00,41.0,37.0,-100.00,North,10,7.0,9.0,85,-99.99,,,-99.99,,2013-04-13 09:52:00,
2013-04-13 06:03:00,41.0,37.0,-100.00,North,10,7.0,9.0,85,-99.99,,,-99.99,,2013-04-13 10:03:00,
2013-04-13 06:22:00,41.0,37.0,-100.00,NE,50,9.0,11.0,85,-99.99,,,-99.99,,2013-04-13 10:22:00,
2013-04-13 06:32:00,41.0,37.0,-100.00,NE,50,9.0,11.0,85,-99.99,,,-99.99,,2013-04-13 10:32:00,
2013-04-13 06:42:00,41.0,37.0,-100.00,NE,50,9.0,11.0,85,-99.99,,,-99.99,,2013-04-13 10:42:00,
2013-04-13 06:52:00,41.0,36.0,-100.00,NNE,20,9.0,11.0,83,-99.99,,,-99.99,,2013-04-13 10:52:00,
2013-04-13 07:03:00,41.0,36.0,-100.00,NNE,20,9.0,11.0,83,-99.99,,,-99.99,,2013-04-13 11:03:00,
2013-04-13 07:11:00,41.0,36.0,-100.00,NNE,20,9.0,11.0,83,-99.99,,,-99.99,,2013-04-13 11:11:00,
2013-04-13 07:22:00,41.0,36.0,-100.00,North,360,4.0,7.0,83,-99.99,,,-99.99,,2013-04-13 11:22:00,
2013-04-13 07:32:00,41.0,36.0,-100.00,North,360,4.0,7.0,83,-99.99,,,-99.99,,2013-04-13 11:32:00,
2013-04-13 07:42:00,41.0,36.0,-100.00,North,360,4.0,7.0,83,-99.99,,,-99.99,,2013-04-13 11:42:00,
2013-04-13 07:52:00,41.0,36.0,-100.00,NNW,330,7.0,7.0,83,-99.99,,,-99.99,,2013-04-13 11:52:00,
2013-04-13 08:22:00,41.0,36.0,-100.00,NNW,330,7.0,9.0,82,-99.99,,,-99.99,,2013-04-13 12:22:00,
2013-04-13 08:32:00,41.0,36.0,-100.00,NNW,330,7.0,9.0,82,-99.99,,,-99.99,,2013-04-13 12:32:00,
2013-04-13 08:52:00,42.0,36.0,-100.00,NNW,330,4.0,7.0,80,-99.99,,,-99.99,,2013-04-13 12:52:00,
2013-04-13 09:02:00,42.0,36.0,-100.00,NNW,330,4.0,7.0,80,-99.99,,,-99.99,,2013-04-13 13:02:00,
2013-04-13 09:22:00,42.0,36.0,-100.00,North,10,2.0,4.0,79,-99.99,,,-99.99,,2013-04-13 13:22:00,
2013-04-13 09:32:00,42.0,36.0,-100.00,North,10,2.0,4.0,79,-99.99,,,-99.99,,2013-04-13 13:32:00,
2013-04-13 09:42:00,42.0,36.0,-100.00,North,10,2.0,4.0,79,-99.99,,,-99.99,,2013-04-13 13:42:00,
2013-04-13 09:52:00,43.0,37.0,-100.00,North,0,0.0,2.0,78,-99.99,,,-99.99,,2013-04-13 13:52:00,
2013-04-13 10:02:00,43.0,37.0,-100.00,North,0,0.0,2.0,78,-99.99,,,-99.99,,2013-04-13 14:02:00,
2013-04-13 10:11:00,43.0,37.0,-100.00,North,0,0.0,2.0,78,-99.99,,,-99.99,,2013-04-13 14:11:00,
2013-04-13 10:21:00,43.0,37.0,-100.00,SW,230,4.0,4.0,79,-99.99,,,-99.99,,2013-04-13 14:21:00,
2013-04-13 10:32:00,43.0,37.0,-100.00,SW,230,4.0,4.0,79,-99.99,,,-99.99,,2013-04-13 14:32:00,
2013-04-13 10:52:00,43.0,37.0,-100.00,SSW,210,7.0,7.0,81,-99.99,,,-99.99,,2013-04-13 14:52:00,
2013-04-13 11:02:00,43.0,37.0,-100.00,SSW,210,7.0,7.0,81,-99.99,,,-99.99,,2013-04-13 15:02:00,
2013-04-13 11:11:00,43.0,38.0,-100.00,SSW,210,7.0,9.0,79,-99.99,,,-99.99,,2013-04-13 15:11:00,
2013-04-13 11:32:00,43.0,38.0,-100.00,SSW,210,7.0,9.0,79,-99.99,,,-99.99,,2013-04-13 15:32:00,
2013-04-13 11:53:00,45.0,40.0,-100.00,SW,220,9.0,11.0,81,-99.99,,,-99.99,,2013-04-13 15:53:00,
2013-04-13 12:03:00,45.0,40.0,-100.00,SW,220,9.0,11.0,81,-99.99,,,-99.99,,2013-04-13 16:03:00,
2013-04-13 12:12:00,46.0,40.0,-100.00,SW,230,9.0,11.0,80,-99.99,,,-99.99,,2013-04-13 16:12:00,
2013-04-13 12:22:00,46.0,40.0,-100.00,SW,230,9.0,11.0,80,-99.99,,,-99.99,,2013-04-13 16:22:00,
2013-04-13 12:33:00,46.0,40.0,-100.00,SW,230,9.0,11.0,80,-99.99,,,-99.99,,2013-04-13 16:33:00,
2013-04-13 12:42:00,46.0,40.0,-100.00,SW,230,9.0,11.0,80,-99.99,,,-99.99,,2013-04-13 16:42:00,
2013-04-13 12:52:00,47.0,40.0,-100.00,SW,220,9.0,11.0,76,-99.99,,,-99.99,,2013-04-13 16:52:00,
2013-04-13 13:12:00,47.0,40.0,-100.00,SW,220,9.0,11.0,76,-99.99,,,-99.99,,2013-04-13 17:12:00,
2013-04-13 13:22:00,47.0,39.0,-100.00,SSW,210,9.0,11.0,74,-99.99,,,-99.99,,2013-04-13 17:22:00,
2013-04-13 13:32:00,47.0,39.0,-100.00,SSW,210,9.0,11.0,74,-99.99,,,-99.99,,2013-04-13 17:32:00,
2013-04-13 13:42:00,47.0,39.0,-100.00,SSW,210,9.0,11.0,74,-99.99,,,-99.99,,2013-04-13 17:42:00,
2013-04-13 13:52:00,48.0,38.0,-100.00,SSW,210,7.0,9.0,68,-99.99,,,-99.99,,2013-04-13 17:52:00,
2013-04-13 14:02:00,48.0,38.0,-100.00,SSW,210,7.0,9.0,68,-99.99,,,-99.99,,2013-04-13 18:02:00,
2013-04-13 14:22:00,48.0,38.0,-100.00,SSW,200,4.0,7.0,66,-99.99,,,-99.99,,2013-04-13 18:22:00,
2013-04-13 14:31:00,48.0,38.0,-100.00,SSW,200,4.0,7.0,66,-99.99,,,-99.99,,2013-04-13 18:31:00,
2013-04-13 14:42:00,48.0,38.0,-100.00,SSW,200,4.0,7.0,66,-99.99,,,-99.99,,2013-04-13 18:42:00,
2013-04-13 14:52:00,49.0,37.0,-100.00,SW,220,7.0,11.0,62,-99.99,,,-99.99,,2013-04-13 18:52:00,
2013-04-13 15:01:00,49.0,37.0,-100.00,SW,220,7.0,11.0,62,-99.99,,,-99.99,,2013-04-13 19:01:00,
2013-04-13 15:21:00,49.0,37.0,-100.00,South,190,7.0,9.0,63,-99.99,,,-99.99,,2013-04-13 19:21:00,
2013-04-13 15:32:00,49.0,37.0,-100.00,South,190,7.0,9.0,63,-99.99,,,-99.99,,2013-04-13 19:32:00,
2013-04-13 15:41:00,49.0,37.0,-100.00,South,190,7.0,9.0,63,-99.99,,,-99.99,,2013-04-13 19:41:00,
2013-04-13 15:52:00,49.0,37.0,-100.00,South,190,9.0,11.0,63,-99.99,,,-99.99,,2013-04-13 19:52:00,
2013-04-13 16:01:00,49.0,37.0,-100.00,South,190,9.0,11.0,63,-99.99,,,-99.99,,2013-04-13 20:01:00,
2013-04-13 16:11:00,51.0,35.0,-100.00,South,180,7.0,11.0,54,-99.99,,,-99.99,,2013-04-13 20:11:00,
2013-04-13 16:21:00,51.0,35.0,-100.00,South,180,7.0,11.0,54,-99.99,,,-99.99,,2013-04-13 20:21:00,
2013-04-13 16:31:00,51.0,35.0,-100.00,South,180,7.0,11.0,54,-99.99,,,-99.99,,2013-04-13 20:31:00,
2013-04-13 16:41:00,51.0,35.0,-100.00,South,180,7.0,11.0,54,-99.99,,,-99.99,,2013-04-13 20:41:00,
2013-04-13 16:52:00,52.0,32.0,-100.00,SE,130,4.0,7.0,46,-99.99,,,-99.99,,2013-04-13 20:52:00,
2013-04-13 17:01:00,52.0,32.0,-100.00,SE,130,4.0,7.0,46,-99.99,,,-99.99,,2013-04-13 21:01:00,
2013-04-13 17:21:00,50.0,36.0,-100.00,ESE,120,7.0,7.0,58,-99.99,,,-99.99,,2013-04-13 21:21:00,
2013-04-13 17:32:00,50.0,36.0,-100.00,ESE,120,7.0,7.0,58,-99.99,,,-99.99,,2013-04-13 21:32:00,
2013-04-13 17:42:00,50.0,36.0,-100.00,ESE,120,7.0,7.0,58,-99.99,,,-99.99,,2013-04-13 21:42:00,
2013-04-13 17:52:00,50.0,38.0,-100.00,SE,130,4.0,7.0,62,-99.99,,,-99.99,,2013-04-13 21:52:00,
2013-04-13 18:02:00,50.0,38.0,-100.00,SE,130,4.0,7.0,62,-99.99,,,-99.99,,2013-04-13 22:02:00,
2013-04-13 18:12:00,52.0,38.0,-100.00,SSW,200,7.0,11.0,57,-99.99,,,-99.99,,2013-04-13 22:12:00,
2013-04-13 18:22:00,52.0,38.0,-100.00,SSW,200,7.0,11.0,57,-99.99,,,-99.99,,2013-04-13 22:22:00,
2013-04-13 18:32:00,52.0,38.0,-100.00,SSW,200,7.0,11.0,57,-99.99,,,-99.99,,2013-04-13 22:32:00,
2013-04-13 18:42:00,52.0,38.0,-100.00,SSW,200,7.0,11.0,57,-99.99,,,-99.99,,2013-04-13 22:42:00,
2013-04-13 18:52:00,52.0,39.0,-100.00,SSW,200,13.0,16.0,60,-99.99,,,-99.99,,2013-04-13 22:52:00,
2013-04-13 19:01:00,52.0,39.0,-100.00,SSW,200,13.0,16.0,60,-99.99,,,-99.99,,2013-04-13 23:01:00,
2013-04-13 19:11:00,51.0,39.0,-100.00,South,190,13.0,18.0,62,-99.99,,,-99.99,,2013-04-13 23:11:00,
2013-04-13 19:22:00,51.0,39.0,-100.00,South,190,13.0,18.0,62,-99.99,,,-99.99,,2013-04-13 23:22:00,
2013-04-13 19:32:00,51.0,39.0,-100.00,South,190,13.0,18.0,62,-99.99,,,-99.99,,2013-04-13 23:32:00,
2013-04-13 19:41:00,51.0,39.0,-100.00,South,190,13.0,18.0,62,-99.99,,,-99.99,,2013-04-13 23:41:00,
2013-04-13 19:52:00,50.0,40.0,-100.00,SSW,200,13.0,16.0,68,-99.99,,,-99.99,,2013-04-13 23:52:00,
2013-04-13 20:01:00,50.0,40.0,-100.00,SSW,200,13.0,16.0,68,-99.99,,,-99.99,,2013-04-14 00:01:00,
2013-04-13 20:21:00,49.0,41.0,-100.00,South,190,11.0,16.0,73,-99.99,,,-99.99,,2013-04-14 00:21:00,
2013-04-13 20:31:00,49.0,41.0,-100.00,South,190,11.0,16.0,73,-99.99,,,-99.99,,2013-04-14 00:31:00,
2013-04-13 20:41:00,49.0,41.0,-100.00,South,190,11.0,16.0,73,-99.99,,,-99.99,,2013-04-14 00:41:00,
2013-04-13 20:52:00,48.0,41.0,-100.00,SSW,210,9.0,11.0,74,-99.99,,,-99.99,,2013-04-14 00:52:00,
2013-04-13 21:01:00,48.0,41.0,-100.00,SSW,210,9.0,11.0,74,-99.99,,,-99.99,,2013-04-14 01:01:00,
2013-04-13 21:11:00,48.0,41.0,-100.00,WSW,250,9.0,11.0,75,-99.99,,,-99.99,,2013-04-14 01:11:00,
2013-04-13 21:21:00,48.0,41.0,-100.00,WSW,250,9.0,11.0,75,-99.99,,,-99.99,,2013-04-14 01:21:00,
2013-04-13 21:32:00,48.0,41.0,-100.00,WSW,250,9.0,11.0,75,-99.99,,,-99.99,,2013-04-14 01:32:00,
2013-04-13 21:41:00,48.0,41.0,-100.00,WSW,250,9.0,11.0,75,-99.99,,,-99.99,,2013-04-14 01:41:00,
2013-04-13 21:52:00,48.0,40.0,-100.00,SW,220,7.0,11.0,74,-99.99,,,-99.99,,2013-04-14 01:52:00,
2013-04-13 22:01:00,48.0,40.0,-100.00,SW,220,7.0,11.0,74,-99.99,,,-99.99,,2013-04-14 02:01:00,
2013-04-13 22:11:00,47.0,41.0,-100.00,WSW,250,4.0,7.0,78,-99.99,,,-99.99,,2013-04-14 02:11:00,
2013-04-13 22:21:00,47.0,41.0,-100.00,WSW,250,4.0,7.0,78,-99.99,,,-99.99,,2013-04-14 02:21:00,
2013-04-13 22:31:00,47.0,41.0,-100.00,WSW,250,4.0,7.0,78,-99.99,,,-99.99,,2013-04-14 02:31:00,
2013-04-13 22:41:00,47.0,41.0,-100.00,WSW,250,4.0,7.0,78,-99.99,,,-99.99,,2013-04-14 02:41:00,
2013-04-13 22:52:00,47.0,41.0,-100.00,SW,220,4.0,7.0,79,-99.99,,,-99.99,,2013-04-14 02:52:00,
2013-04-13 23:01:00,47.0,41.0,-100.00,SW,220,4.0,7.0,79,-99.99,,,-99.99,,2013-04-14 03:01:00,
2013-04-13 23:21:00,46.0,41.0,-100.00,SSW,200,4.0,4.0,81,-99.99,,,-99.99,,2013-04-14 03:21:00,
2013-04-13 23:32:00,46.0,41.0,-100.00,SSW,200,4.0,4.0,81,-99.99,,,-99.99,,2013-04-14 03:32:00,
2013-04-13 23:42:00,46.0,41.0,-100.00,SSW,200,4.0,4.0,81,-99.99,,,-99.99,,2013-04-14 03:42:00,
2013-04-13 23:52:00,46.0,41.0,-100.00,South,190,9.0,11.0,81,-99.99,,,-99.99,,2013-04-14 03:52:00,